sensor_id;sensor_type;location;lat;lon;timestamp;pressure;altitude;pressure_sealevel;temperature;humidity
13029;BME280;6581;42.662;23.402;2023-05-29T00:01:33;95120.19;;;14.76;100.00
13029;BME280;6581;42.662;23.402;2023-05-29T00:04:01;95120.19;;;14.79;100.00
13029;BME280;6581;42.662;23.402;2023-05-29T00:06:28;95118.28;;;14.76;100.00
13029;BME280;6581;42.662;23.402;2023-05-29T00:08:56;95118.69;;;14.75;100.00
13029;BME280;6581;42.662;23.402;2023-05-29T00:11:24;95129.34;;;14.75;100.00
13029;BME280;6581;42.662;23.402;2023-05-29T00:13:51;95121.00;;;14.69;100.00
13029;BME280;6581;42.662;23.402;2023-05-29T00:16:19;95119.09;;;14.70;100.00
13029;BME280;6581;42.662;23.402;2023-05-29T00:18:46;95129.38;;;14.68;100.00
13029;BME280;6581;42.662;23.402;2023-05-29T00:21:13;95125.56;;;14.69;100.00
13029;BME280;6581;42.662;23.402;2023-05-29T00:23:41;95122.56;;;14.56;100.00
13029;BME280;6581;42.662;23.402;2023-05-29T00:26:08;95132.44;;;14.59;100.00
13029;BME280;6581;42.662;23.402;2023-05-29T00:28:39;95116.47;;;14.55;100.00
13029;BME280;6581;42.662;23.402;2023-05-29T00:31:06;95123.31;;;14.53;100.00
13029;BME280;6581;42.662;23.402;2023-05-29T00:33:34;95113.44;;;14.50;100.00
13029;BME280;6581;42.662;23.402;2023-05-29T00:36:01;95122.22;;;14.29;100.00
13029;BME280;6581;42.662;23.402;2023-05-29T00:38:28;95129.47;;;14.36;100.00
13029;BME280;6581;42.662;23.402;2023-05-29T00:40:55;95125.66;;;14.33;100.00
13029;BME280;6581;42.662;23.402;2023-05-29T00:43:24;95118.03;;;14.28;100.00
13029;BME280;6581;42.662;23.402;2023-05-29T00:45:52;95121.06;;;14.30;100.00
13029;BME280;6581;42.662;23.402;2023-05-29T00:48:20;95117.25;;;14.35;100.00
13029;BME280;6581;42.662;23.402;2023-05-29T00:50:47;95111.97;;;14.24;100.00
13029;BME280;6581;42.662;23.402;2023-05-29T00:53:16;95108.56;;;14.09;100.00
13029;BME280;6581;42.662;23.402;2023-05-29T00:55:44;95108.94;;;14.11;100.00
13029;BME280;6581;42.662;23.402;2023-05-29T00:58:11;95111.97;;;14.17;100.00
13029;BME280;6581;42.662;23.402;2023-05-29T01:00:39;95109.31;;;14.13;100.00
13029;BME280;6581;42.662;23.402;2023-05-29T01:03:07;95106.66;;;14.13;100.00
13029;BME280;6581;42.662;23.402;2023-05-29T01:05:35;95108.94;;;14.15;100.00
13029;BME280;6581;42.662;23.402;2023-05-29T01:08:03;95114.63;;;14.17;100.00
13029;BME280;6581;42.662;23.402;2023-05-29T01:10:30;95117.31;;;14.13;100.00
13029;BME280;6581;42.662;23.402;2023-05-29T01:13:03;95107.44;;;14.03;100.00
13029;BME280;6581;42.662;23.402;2023-05-29T01:15:37;95117.31;;;14.03;100.00
13029;BME280;6581;42.662;23.402;2023-05-29T01:18:23;95110.88;;;14.00;100.00
13029;BME280;6581;42.662;23.402;2023-05-29T01:20:56;95110.47;;;13.98;100.00
13029;BME280;6581;42.662;23.402;2023-05-29T01:29:18;95113.91;;;13.95;100.00
13029;BME280;6581;42.662;23.402;2023-05-29T01:31:49;95109.75;;;13.87;100.00
13029;BME280;6581;42.662;23.402;2023-05-29T01:34:16;95108.59;;;13.88;100.00
13029;BME280;6581;42.662;23.402;2023-05-29T01:36:43;95107.06;;;13.87;100.00
13029;BME280;6581;42.662;23.402;2023-05-29T01:39:12;95113.16;;;13.91;100.00
13029;BME280;6581;42.662;23.402;2023-05-29T01:41:40;95106.69;;;13.82;100.00
13029;BME280;6581;42.662;23.402;2023-05-29T01:44:08;95112.41;;;13.69;100.00
13029;BME280;6581;42.662;23.402;2023-05-29T01:46:38;95107.06;;;13.66;100.00
13029;BME280;6581;42.662;23.402;2023-05-29T01:49:07;95107.09;;;13.69;100.00
13029;BME280;6581;42.662;23.402;2023-05-29T01:51:35;95104.03;;;13.71;100.00
13029;BME280;6581;42.662;23.402;2023-05-29T01:54:02;95106.69;;;13.71;100.00
13029;BME280;6581;42.662;23.402;2023-05-29T01:56:31;95098.72;;;13.74;100.00
13029;BME280;6581;42.662;23.402;2023-05-29T01:59:01;95110.50;;;13.73;100.00
13029;BME280;6581;42.662;23.402;2023-05-29T02:01:31;95104.41;;;13.66;100.00
13029;BME280;6581;42.662;23.402;2023-05-29T02:03:58;95097.19;;;13.66;100.00
13029;BME280;6581;42.662;23.402;2023-05-29T02:06:25;95094.94;;;13.65;100.00
13029;BME280;6581;42.662;23.402;2023-05-29T02:08:52;95098.72;;;13.57;100.00
13029;BME280;6581;42.662;23.402;2023-05-29T02:11:21;95101.00;;;13.58;100.00
13029;BME280;6581;42.662;23.402;2023-05-29T02:13:48;95102.13;;;13.57;100.00
13029;BME280;6581;42.662;23.402;2023-05-29T02:16:18;95089.97;;;13.53;100.00
13029;BME280;6581;42.662;23.402;2023-05-29T02:18:46;95097.59;;;13.51;100.00
13029;BME280;6581;42.662;23.402;2023-05-29T02:21:14;95096.06;;;13.43;100.00
13029;BME280;6581;42.662;23.402;2023-05-29T02:23:42;95099.47;;;13.43;100.00
13029;BME280;6581;42.662;23.402;2023-05-29T02:26:11;95094.53;;;13.45;100.00
13029;BME280;6581;42.662;23.402;2023-05-29T02:28:38;95100.63;;;13.49;100.00
13029;BME280;6581;42.662;23.402;2023-05-29T02:31:06;95092.28;;;13.47;100.00
13029;BME280;6581;42.662;23.402;2023-05-29T02:33:34;95101.00;;;13.55;100.00
13029;BME280;6581;42.662;23.402;2023-05-29T02:36:01;95099.88;;;13.56;100.00
13029;BME280;6581;42.662;23.402;2023-05-29T02:38:30;95102.16;;;13.61;100.00
13029;BME280;6581;42.662;23.402;2023-05-29T02:40:57;95107.06;;;13.66;100.00
13029;BME280;6581;42.662;23.402;2023-05-29T02:43:25;95107.09;;;13.73;100.00
13029;BME280;6581;42.662;23.402;2023-05-29T02:45:52;95112.03;;;13.71;100.00
13029;BME280;6581;42.662;23.402;2023-05-29T02:48:19;95112.03;;;13.71;100.00
13029;BME280;6581;42.662;23.402;2023-05-29T02:50:48;95104.81;;;13.68;100.00
13029;BME280;6581;42.662;23.402;2023-05-29T02:53:15;95116.59;;;13.74;100.00
13029;BME280;6581;42.662;23.402;2023-05-29T02:55:42;95115.47;;;13.79;100.00
13029;BME280;6581;42.662;23.402;2023-05-29T02:58:09;95105.56;;;13.72;100.00
13029;BME280;6581;42.662;23.402;2023-05-29T03:00:37;95106.72;;;13.74;100.00
13029;BME280;6581;42.662;23.402;2023-05-29T03:03:04;95115.44;;;13.75;100.00
13029;BME280;6581;42.662;23.402;2023-05-29T03:05:33;95122.69;;;13.78;100.00
13029;BME280;6581;42.662;23.402;2023-05-29T03:08:02;95115.81;;;13.84;100.00
13029;BME280;6581;42.662;23.402;2023-05-29T03:10:29;95116.59;;;13.77;100.00
13029;BME280;6581;42.662;23.402;2023-05-29T03:12:55;95118.88;;;13.83;100.00
13029;BME280;6581;42.662;23.402;2023-05-29T03:15:23;95103.28;;;13.92;100.00
13029;BME280;6581;42.662;23.402;2023-05-29T03:17:50;95111.22;;;14.02;100.00
13029;BME280;6581;42.662;23.402;2023-05-29T03:20:22;95120.75;;;14.00;100.00
13029;BME280;6581;42.662;23.402;2023-05-29T03:22:52;95113.88;;;14.02;100.00
13029;BME280;6581;42.662;23.402;2023-05-29T03:25:21;95115.41;;;14.03;100.00
13029;BME280;6581;42.662;23.402;2023-05-29T03:27:48;95115.03;;;14.08;100.00
13029;BME280;6581;42.662;23.402;2023-05-29T03:30:19;95120.34;;;14.12;100.00
13029;BME280;6581;42.662;23.402;2023-05-29T03:32:50;95121.13;;;14.16;100.00
13029;BME280;6581;42.662;23.402;2023-05-29T03:35:21;95134.03;;;14.25;100.00
13029;BME280;6581;42.662;23.402;2023-05-29T03:37:48;95136.31;;;14.30;100.00
13029;BME280;6581;42.662;23.402;2023-05-29T03:40:15;95146.97;;;14.37;100.00
13029;BME280;6581;42.662;23.402;2023-05-29T03:42:44;95146.94;;;14.44;100.00
13029;BME280;6581;42.662;23.402;2023-05-29T03:45:12;95137.81;;;14.45;100.00
13029;BME280;6581;42.662;23.402;2023-05-29T03:47:40;95141.19;;;14.63;100.00
13029;BME280;6581;42.662;23.402;2023-05-29T03:50:07;95143.03;;;14.77;100.00
13029;BME280;6581;42.662;23.402;2023-05-29T03:52:36;95139.94;;;14.85;100.00
13029;BME280;6581;42.662;23.402;2023-05-29T03:55:08;95146.78;;;14.93;100.00
13029;BME280;6581;42.662;23.402;2023-05-29T03:57:39;95142.22;;;14.90;100.00
13029;BME280;6581;42.662;23.402;2023-05-29T04:00:10;95140.81;;;14.61;100.00
13029;BME280;6581;42.662;23.402;2023-05-29T04:02:39;95152.25;;;14.58;100.00
13029;BME280;6581;42.662;23.402;2023-05-29T04:05:07;95159.44;;;14.68;100.00
13029;BME280;6581;42.662;23.402;2023-05-29T04:07:36;95162.78;;;14.90;100.00
13029;BME280;6581;42.662;23.402;2023-05-29T04:10:05;95163.53;;;14.97;100.00
13029;BME280;6581;42.662;23.402;2023-05-29T04:12:34;95164.59;;;15.14;100.00
13029;BME280;6581;42.662;23.402;2023-05-29T04:15:01;95166.75;;;15.37;100.00
13029;BME280;6581;42.662;23.402;2023-05-29T04:17:30;95171.16;;;15.68;100.00
13029;BME280;6581;42.662;23.402;2023-05-29T04:19:57;95171.13;;;15.75;100.00
13029;BME280;6581;42.662;23.402;2023-05-29T04:22:25;95172.16;;;15.88;100.00
13029;BME280;6581;42.662;23.402;2023-05-29T04:24:52;95172.09;;;15.99;100.00
13029;BME280;6581;42.662;23.402;2023-05-29T04:27:19;95170.47;;;16.09;100.00
13029;BME280;6581;42.662;23.402;2023-05-29T04:29:46;95175.41;;;16.10;100.00
13029;BME280;6581;42.662;23.402;2023-05-29T04:32:13;95176.56;;;16.13;100.00
13029;BME280;6581;42.662;23.402;2023-05-29T04:34:42;95174.53;;;16.24;100.00
13029;BME280;6581;42.662;23.402;2023-05-29T04:37:10;95180.13;;;16.36;100.00
13029;BME280;6581;42.662;23.402;2023-05-29T04:39:39;95177.31;;;16.54;100.00
13029;BME280;6581;42.662;23.402;2023-05-29T04:42:07;95179.13;;;16.68;100.00
13029;BME280;6581;42.662;23.402;2023-05-29T04:44:35;95184.56;;;16.91;100.00
13029;BME280;6581;42.662;23.402;2023-05-29T04:47:02;95184.09;;;17.00;100.00
13029;BME280;6581;42.662;23.402;2023-05-29T04:49:30;95180.84;;;17.15;100.00
13029;BME280;6581;42.662;23.402;2023-05-29T04:51:58;95189.91;;;17.25;100.00
13029;BME280;6581;42.662;23.402;2023-05-29T04:54:26;95185.94;;;17.37;100.00
13029;BME280;6581;42.662;23.402;2023-05-29T04:56:54;95191.88;;;17.48;100.00
13029;BME280;6581;42.662;23.402;2023-05-29T04:59:25;95194.81;;;17.60;100.00
13029;BME280;6581;42.662;23.402;2023-05-29T05:01:53;95204.56;;;17.74;100.00
13029;BME280;6581;42.662;23.402;2023-05-29T05:04:20;95210.94;;;17.84;100.00
13029;BME280;6581;42.662;23.402;2023-05-29T05:06:47;95207.03;;;17.88;100.00
13029;BME280;6581;42.662;23.402;2023-05-29T05:09:16;95207.09;;;17.85;100.00
13029;BME280;6581;42.662;23.402;2023-05-29T05:11:43;95207.69;;;17.69;100.00
13029;BME280;6581;42.662;23.402;2023-05-29T05:14:11;95215.50;;;17.56;100.00
13029;BME280;6581;42.662;23.402;2023-05-29T05:16:38;95214.53;;;17.43;100.00
13029;BME280;6581;42.662;23.402;2023-05-29T05:19:05;95216.31;;;17.53;100.00
13029;BME280;6581;42.662;23.402;2023-05-29T05:21:37;95210.25;;;17.49;100.00
13029;BME280;6581;42.662;23.402;2023-05-29T05:24:04;95214.13;;;17.75;100.00
13029;BME280;6581;42.662;23.402;2023-05-29T05:26:33;95221.94;;;17.89;100.00
13029;BME280;6581;42.662;23.402;2023-05-29T05:29:00;95216.44;;;18.00;100.00
13029;BME280;6581;42.662;23.402;2023-05-29T05:31:29;95212.75;;;17.90;100.00
13029;BME280;6581;42.662;23.402;2023-05-29T05:33:57;95216.31;;;18.07;100.00
13029;BME280;6581;42.662;23.402;2023-05-29T05:36:24;95222.97;;;18.22;100.00
13029;BME280;6581;42.662;23.402;2023-05-29T05:38:56;95219.06;;;18.27;100.00
13029;BME280;6581;42.662;23.402;2023-05-29T05:41:23;95203.44;;;18.22;100.00
13029;BME280;6581;42.662;23.402;2023-05-29T05:43:53;95216.16;;;18.17;100.00
13029;BME280;6581;42.662;23.402;2023-05-29T05:46:43;95213.78;;;18.23;100.00
13029;BME280;6581;42.662;23.402;2023-05-29T05:49:10;95204.22;;;18.22;100.00
13029;BME280;6581;42.662;23.402;2023-05-29T05:51:39;95226.41;;;18.23;100.00
13029;BME280;6581;42.662;23.402;2023-05-29T05:54:06;95226.03;;;17.97;100.00
13029;BME280;6581;42.662;23.402;2023-05-29T05:56:33;95225.91;;;17.81;100.00
13029;BME280;6581;42.662;23.402;2023-05-29T05:59:05;95225.13;;;17.81;100.00
13029;BME280;6581;42.662;23.402;2023-05-29T06:01:32;95208.63;;;17.86;99.32
13029;BME280;6581;42.662;23.402;2023-05-29T06:03:59;95220.59;;;17.78;100.00
13029;BME280;6581;42.662;23.402;2023-05-29T06:06:26;95210.22;;;17.80;100.00
13029;BME280;6581;42.662;23.402;2023-05-29T06:08:53;95219.81;;;18.04;100.00
13029;BME280;6581;42.662;23.402;2023-05-29T06:11:22;95222.81;;;18.09;100.00
13029;BME280;6581;42.662;23.402;2023-05-29T06:13:49;95220.31;;;18.22;100.00
13029;BME280;6581;42.662;23.402;2023-05-29T06:16:28;95219.31;;;18.36;99.98
13029;BME280;6581;42.662;23.402;2023-05-29T06:18:56;95221.81;;;18.46;100.00
13029;BME280;6581;42.662;23.402;2023-05-29T06:21:24;95225.31;;;18.43;98.98
13029;BME280;6581;42.662;23.402;2023-05-29T06:23:53;95220.31;;;18.45;100.00
13029;BME280;6581;42.662;23.402;2023-05-29T06:26:20;95221.59;;;18.37;99.17
13029;BME280;6581;42.662;23.402;2023-05-29T06:28:49;95221.22;;;18.35;100.00
13029;BME280;6581;42.662;23.402;2023-05-29T06:31:16;95229.16;;;18.42;100.00
13029;BME280;6581;42.662;23.402;2023-05-29T06:33:45;95231.16;;;18.62;100.00
13029;BME280;6581;42.662;23.402;2023-05-29T06:36:14;95225.91;;;18.78;98.35
13029;BME280;6581;42.662;23.402;2023-05-29T06:38:46;95235.94;;;18.74;97.27
13029;BME280;6581;42.662;23.402;2023-05-29T06:41:13;95230.03;;;18.82;97.52
13029;BME280;6581;42.662;23.402;2023-05-29T06:43:39;95231.59;;;18.80;98.09
13029;BME280;6581;42.662;23.402;2023-05-29T06:46:08;95228.50;;;18.81;95.57
13029;BME280;6581;42.662;23.402;2023-05-29T06:48:36;95226.19;;;18.83;96.36
13029;BME280;6581;42.662;23.402;2023-05-29T06:51:05;95227.13;;;18.93;96.03
13029;BME280;6581;42.662;23.402;2023-05-29T06:53:40;95226.81;;;18.91;94.85
13029;BME280;6581;42.662;23.402;2023-05-29T06:56:09;95224.94;;;18.88;94.34
13029;BME280;6581;42.662;23.402;2023-05-29T06:58:37;95224.00;;;18.75;94.82
13029;BME280;6581;42.662;23.402;2023-05-29T07:01:05;95225.50;;;18.99;94.14
13029;BME280;6581;42.662;23.402;2023-05-29T07:03:51;95221.09;;;19.09;97.58
13029;BME280;6581;42.662;23.402;2023-05-29T07:06:20;95226.44;;;19.48;92.32
13029;BME280;6581;42.662;23.402;2023-05-29T07:08:48;95229.63;;;20.92;85.16
13029;BME280;6581;42.662;23.402;2023-05-29T07:11:16;95238.00;;;21.77;79.53
13029;BME280;6581;42.662;23.402;2023-05-29T07:13:43;95229.00;;;21.96;75.37
13029;BME280;6581;42.662;23.402;2023-05-29T07:16:10;95230.81;;;24.51;66.19
13029;BME280;6581;42.662;23.402;2023-05-29T07:18:37;95227.91;;;26.24;57.67
13029;BME280;6581;42.662;23.402;2023-05-29T07:21:04;95244.84;;;26.10;52.88
13029;BME280;6581;42.662;23.402;2023-05-29T07:23:33;95234.66;;;25.87;51.94
13029;BME280;6581;42.662;23.402;2023-05-29T07:26:00;95230.97;;;26.41;50.32
13029;BME280;6581;42.662;23.402;2023-05-29T07:28:29;95236.25;;;27.30;46.75
13029;BME280;6581;42.662;23.402;2023-05-29T07:30:56;95238.66;;;26.42;48.83
13029;BME280;6581;42.662;23.402;2023-05-29T07:33:24;95236.00;;;25.13;51.36
13029;BME280;6581;42.662;23.402;2023-05-29T07:35:54;95222.63;;;24.24;54.45
13029;BME280;6581;42.662;23.402;2023-05-29T07:38:21;95235.03;;;23.29;60.63
13029;BME280;6581;42.662;23.402;2023-05-29T07:40:50;95223.63;;;24.94;55.84
13029;BME280;6581;42.662;23.402;2023-05-29T07:43:31;95229.34;;;26.82;47.78
13029;BME280;6581;42.662;23.402;2023-05-29T07:46:03;95229.19;;;26.62;48.18
13029;BME280;6581;42.662;23.402;2023-05-29T07:48:30;95225.28;;;28.13;42.96
13029;BME280;6581;42.662;23.402;2023-05-29T07:50:58;95230.22;;;28.14;44.06
13029;BME280;6581;42.662;23.402;2023-05-29T07:53:30;95226.44;;;27.09;47.29
13029;BME280;6581;42.662;23.402;2023-05-29T07:56:04;95219.69;;;25.31;51.96
13029;BME280;6581;42.662;23.402;2023-05-29T07:58:32;95223.75;;;24.54;56.73
13029;BME280;6581;42.662;23.402;2023-05-29T08:01:00;95213.41;;;23.29;60.50
13029;BME280;6581;42.662;23.402;2023-05-29T08:03:26;95223.19;;;22.58;64.84
13029;BME280;6581;42.662;23.402;2023-05-29T08:06:15;95227.41;;;21.99;67.37
13029;BME280;6581;42.662;23.402;2023-05-29T08:08:44;95222.03;;;22.46;67.01
13029;BME280;6581;42.662;23.402;2023-05-29T08:11:14;95217.19;;;23.31;62.14
13029;BME280;6581;42.662;23.402;2023-05-29T08:13:41;95218.72;;;23.54;61.33
13029;BME280;6581;42.662;23.402;2023-05-29T08:16:09;95212.06;;;24.17;56.87
13029;BME280;6581;42.662;23.402;2023-05-29T08:18:36;95223.59;;;24.66;54.68
13029;BME280;6581;42.662;23.402;2023-05-29T08:21:03;95213.53;;;25.22;56.14
13029;BME280;6581;42.662;23.402;2023-05-29T08:23:31;95219.53;;;24.71;55.89
13029;BME280;6581;42.662;23.402;2023-05-29T08:25:58;95224.72;;;23.15;61.62
13029;BME280;6581;42.662;23.402;2023-05-29T08:28:26;95234.44;;;22.56;65.52
13029;BME280;6581;42.662;23.402;2023-05-29T08:31:02;95232.53;;;22.19;69.27
13029;BME280;6581;42.662;23.402;2023-05-29T08:33:30;95226.06;;;21.78;68.13
13029;BME280;6581;42.662;23.402;2023-05-29T08:35:58;95228.38;;;21.38;68.58
13029;BME280;6581;42.662;23.402;2023-05-29T08:38:26;95226.28;;;21.96;66.40
13029;BME280;6581;42.662;23.402;2023-05-29T08:40:55;95213.91;;;21.99;64.73
13029;BME280;6581;42.662;23.402;2023-05-29T08:43:23;95211.53;;;22.61;65.33
13029;BME280;6581;42.662;23.402;2023-05-29T08:45:55;95214.50;;;22.41;62.72
13029;BME280;6581;42.662;23.402;2023-05-29T08:48:24;95209.91;;;22.50;63.89
13029;BME280;6581;42.662;23.402;2023-05-29T08:50:53;95214.00;;;22.21;64.00
13029;BME280;6581;42.662;23.402;2023-05-29T08:53:21;95216.16;;;22.26;61.28
13029;BME280;6581;42.662;23.402;2023-05-29T08:55:49;95211.91;;;22.37;60.96
13029;BME280;6581;42.662;23.402;2023-05-29T08:58:18;95202.09;;;22.65;59.54
13029;BME280;6581;42.662;23.402;2023-05-29T09:00:47;95196.25;;;22.79;58.69
13029;BME280;6581;42.662;23.402;2023-05-29T09:03:15;95200.16;;;22.66;59.18
13029;BME280;6581;42.662;23.402;2023-05-29T09:05:44;95195.63;;;22.28;58.87
13029;BME280;6581;42.662;23.402;2023-05-29T09:08:12;95198.97;;;22.67;59.70
13029;BME280;6581;42.662;23.402;2023-05-29T09:10:39;95198.88;;;22.23;58.37
13029;BME280;6581;42.662;23.402;2023-05-29T09:13:06;95189.69;;;22.33;56.78
13029;BME280;6581;42.662;23.402;2023-05-29T09:15:35;95186.22;;;22.80;57.47
13029;BME280;6581;42.662;23.402;2023-05-29T09:18:04;95180.16;;;23.19;56.25
13029;BME280;6581;42.662;23.402;2023-05-29T09:20:32;95179.78;;;23.30;53.80
13029;BME280;6581;42.662;23.402;2023-05-29T09:23:01;95181.50;;;23.36;52.79
13029;BME280;6581;42.662;23.402;2023-05-29T09:25:30;95179.56;;;22.93;52.88
13029;BME280;6581;42.662;23.402;2023-05-29T09:27:59;95166.13;;;22.81;53.76
13029;BME280;6581;42.662;23.402;2023-05-29T09:30:36;95164.09;;;22.60;53.92
13029;BME280;6581;42.662;23.402;2023-05-29T09:33:13;95154.06;;;22.73;54.86
13029;BME280;6581;42.662;23.402;2023-05-29T09:35:42;95160.09;;;22.64;55.48
13029;BME280;6581;42.662;23.402;2023-05-29T09:38:11;95162.03;;;22.76;57.32
13029;BME280;6581;42.662;23.402;2023-05-29T09:40:39;95156.06;;;22.81;56.58
13029;BME280;6581;42.662;23.402;2023-05-29T09:43:10;95154.44;;;22.49;55.34
13029;BME280;6581;42.662;23.402;2023-05-29T09:45:38;95150.31;;;22.58;57.55
13029;BME280;6581;42.662;23.402;2023-05-29T09:48:07;95158.63;;;22.50;57.92
13029;BME280;6581;42.662;23.402;2023-05-29T09:50:36;95152.03;;;22.30;56.47
13029;BME280;6581;42.662;23.402;2023-05-29T09:53:03;95156.03;;;22.25;56.33
13029;BME280;6581;42.662;23.402;2023-05-29T09:55:43;95150.91;;;22.40;55.58
13029;BME280;6581;42.662;23.402;2023-05-29T09:58:13;95146.28;;;22.62;55.50
13029;BME280;6581;42.662;23.402;2023-05-29T10:00:41;95146.69;;;23.17;53.68
13029;BME280;6581;42.662;23.402;2023-05-29T10:03:09;95137.34;;;23.39;51.53
13029;BME280;6581;42.662;23.402;2023-05-29T10:05:39;95140.97;;;23.67;51.33
13029;BME280;6581;42.662;23.402;2023-05-29T10:08:08;95140.06;;;23.70;52.25
13029;BME280;6581;42.662;23.402;2023-05-29T10:10:37;95135.28;;;23.83;53.06
13029;BME280;6581;42.662;23.402;2023-05-29T10:13:06;95138.63;;;23.88;54.19
13029;BME280;6581;42.662;23.402;2023-05-29T10:15:34;95140.41;;;23.81;50.92
13029;BME280;6581;42.662;23.402;2023-05-29T10:18:03;95140.94;;;23.36;51.14
13029;BME280;6581;42.662;23.402;2023-05-29T10:20:34;95141.34;;;23.26;51.60
13029;BME280;6581;42.662;23.402;2023-05-29T10:23:04;95148.75;;;22.69;53.08
13029;BME280;6581;42.662;23.402;2023-05-29T10:25:33;95141.97;;;22.30;54.44
13029;BME280;6581;42.662;23.402;2023-05-29T10:28:02;95138.69;;;22.48;54.64
13029;BME280;6581;42.662;23.402;2023-05-29T10:30:34;95129.53;;;22.45;55.98
13029;BME280;6581;42.662;23.402;2023-05-29T10:33:31;95137.13;;;22.60;55.82
13029;BME280;6581;42.662;23.402;2023-05-29T10:36:07;95139.50;;;22.23;54.35
13029;BME280;6581;42.662;23.402;2023-05-29T10:38:40;95131.09;;;22.21;55.02
13029;BME280;6581;42.662;23.402;2023-05-29T10:41:31;95131.41;;;22.36;55.77
13029;BME280;6581;42.662;23.402;2023-05-29T10:44:00;95136.63;;;22.52;56.68
13029;BME280;6581;42.662;23.402;2023-05-29T10:47:01;95129.06;;;22.81;56.65
13029;BME280;6581;42.662;23.402;2023-05-29T10:49:29;95128.25;;;22.93;54.96
13029;BME280;6581;42.662;23.402;2023-05-29T10:51:57;95132.69;;;23.09;55.32
13029;BME280;6581;42.662;23.402;2023-05-29T10:54:27;95117.31;;;23.19;57.09
13029;BME280;6581;42.662;23.402;2023-05-29T10:56:55;95116.00;;;23.32;56.89
13029;BME280;6581;42.662;23.402;2023-05-29T10:59:23;95114.50;;;23.62;53.63
13029;BME280;6581;42.662;23.402;2023-05-29T11:01:53;95104.50;;;23.81;51.19
13029;BME280;6581;42.662;23.402;2023-05-29T11:04:29;95112.53;;;24.21;48.95
13029;BME280;6581;42.662;23.402;2023-05-29T11:06:58;95103.34;;;24.09;50.33
13029;BME280;6581;42.662;23.402;2023-05-29T11:09:29;95095.56;;;24.48;48.74
13029;BME280;6581;42.662;23.402;2023-05-29T11:12:16;95102.03;;;24.78;48.10
13029;BME280;6581;42.662;23.402;2023-05-29T11:14:55;95100.97;;;24.57;46.43
13029;BME280;6581;42.662;23.402;2023-05-29T11:17:30;95097.34;;;24.78;49.34
13029;BME280;6581;42.662;23.402;2023-05-29T11:20:00;95097.78;;;25.04;47.78
13029;BME280;6581;42.662;23.402;2023-05-29T11:22:38;95087.13;;;24.64;46.53
13029;BME280;6581;42.662;23.402;2023-05-29T11:25:15;95091.38;;;24.56;47.09
13029;BME280;6581;42.662;23.402;2023-05-29T11:27:44;95089.84;;;24.18;47.28
13029;BME280;6581;42.662;23.402;2023-05-29T11:30:11;95084.88;;;24.17;48.00
13029;BME280;6581;42.662;23.402;2023-05-29T11:32:39;95086.50;;;24.14;51.08
13029;BME280;6581;42.662;23.402;2023-05-29T11:35:08;95086.56;;;23.65;49.19
13029;BME280;6581;42.662;23.402;2023-05-29T11:37:36;95081.94;;;23.04;52.64
13029;BME280;6581;42.662;23.402;2023-05-29T11:40:06;95083.69;;;22.98;53.79
13029;BME280;6581;42.662;23.402;2023-05-29T11:42:36;95087.09;;;22.68;52.52
13029;BME280;6581;42.662;23.402;2023-05-29T11:45:11;95093.56;;;22.48;54.89
13029;BME280;6581;42.662;23.402;2023-05-29T11:47:52;95088.78;;;22.18;63.07
13029;BME280;6581;42.662;23.402;2023-05-29T11:50:19;95093.19;;;21.90;76.21
13029;BME280;6581;42.662;23.402;2023-05-29T11:52:48;95094.19;;;21.58;83.67
13029;BME280;6581;42.662;23.402;2023-05-29T11:55:17;95099.03;;;21.38;83.60
13029;BME280;6581;42.662;23.402;2023-05-29T11:57:47;95092.69;;;21.32;82.79
13029;BME280;6581;42.662;23.402;2023-05-29T12:00:16;95095.78;;;21.18;83.96
13029;BME280;6581;42.662;23.402;2023-05-29T12:02:44;95100.53;;;21.14;81.02
13029;BME280;6581;42.662;23.402;2023-05-29T12:05:13;95099.00;;;21.13;77.54
13029;BME280;6581;42.662;23.402;2023-05-29T12:07:50;95098.19;;;21.29;80.04
13029;BME280;6581;42.662;23.402;2023-05-29T12:10:18;95095.59;;;21.38;75.41
13029;BME280;6581;42.662;23.402;2023-05-29T12:12:52;95095.81;;;21.56;73.27
13029;BME280;6581;42.662;23.402;2023-05-29T12:15:20;95100.72;;;21.83;75.13
13029;BME280;6581;42.662;23.402;2023-05-29T12:17:48;95098.13;;;22.04;68.83
13029;BME280;6581;42.662;23.402;2023-05-29T12:20:17;95100.59;;;22.12;66.63
13029;BME280;6581;42.662;23.402;2023-05-29T12:22:45;95099.69;;;22.27;64.99
13029;BME280;6581;42.662;23.402;2023-05-29T12:25:13;95103.50;;;22.17;66.83
13029;BME280;6581;42.662;23.402;2023-05-29T12:27:42;95115.94;;;22.02;77.36
13029;BME280;6581;42.662;23.402;2023-05-29T12:30:12;95116.50;;;21.46;83.98
13029;BME280;6581;42.662;23.402;2023-05-29T12:32:41;95124.44;;;21.12;69.81
13029;BME280;6581;42.662;23.402;2023-05-29T12:35:13;95117.19;;;20.96;68.49
13029;BME280;6581;42.662;23.402;2023-05-29T12:37:48;95118.19;;;20.73;69.53
13029;BME280;6581;42.662;23.402;2023-05-29T12:40:20;95122.78;;;20.60;72.63
13029;BME280;6581;42.662;23.402;2023-05-29T12:42:49;95114.69;;;20.31;76.43
13029;BME280;6581;42.662;23.402;2023-05-29T12:45:19;95112.47;;;19.98;77.92
13029;BME280;6581;42.662;23.402;2023-05-29T12:47:50;95108.25;;;19.80;77.63
13029;BME280;6581;42.662;23.402;2023-05-29T12:50:23;95111.47;;;19.59;79.42
13029;BME280;6581;42.662;23.402;2023-05-29T12:52:58;95103.72;;;19.93;79.76
13029;BME280;6581;42.662;23.402;2023-05-29T12:55:25;95108.34;;;20.09;76.83
13029;BME280;6581;42.662;23.402;2023-05-29T12:57:53;95111.03;;;19.77;74.77
13029;BME280;6581;42.662;23.402;2023-05-29T13:00:23;95101.22;;;20.03;76.83
13029;BME280;6581;42.662;23.402;2023-05-29T13:02:50;95100.44;;;20.02;76.61
13029;BME280;6581;42.662;23.402;2023-05-29T13:05:18;95090.06;;;20.17;78.14
13029;BME280;6581;42.662;23.402;2023-05-29T13:07:49;95085.25;;;19.96;76.68
13029;BME280;6581;42.662;23.402;2023-05-29T13:10:16;95087.63;;;19.61;77.92
13029;BME280;6581;42.662;23.402;2023-05-29T13:12:43;95099.28;;;19.71;78.62